aviador You're here:

KFLD Decoded Metar

FOND DU LAC in WI, USA
Report Time2017-08-22 21:53:00
UTC Time2017-08-22 22:28:15
Flight Rules vfr VFR
Wind310° at 11 kt
W.Decomp.*RWY 27: 7.9 kt HW 7.6 kt RCW
RWY 36: 7.6 kt HW 7.9 kt LCW
W.Rank310° ranks 14
Current wind is above 310° avg. (9.1)
Visibility9999 m
Phenomena:N/A
Clouds:Few 060 Hf
Scattered 075 Hf
Expected CloudBase > 5,200 ft AGL from Temp-Dew spread
CeilingNone
Temp22°C (ISA +9)
Dew Point09°C (44% RH)
AAT17.9°C
QNH1014 hPa
Density Alt1,906 ft
Elevation787 ft
Report Wrong Elevation
Raw Report
KFLD 222153Z AUTO 31011KT 10SM FEW060 SCT075 22/09 A2993 RMK AO2
SLP132 T02220094=

Extra information for KFLD:More info

Metar Taf Metar & Taf Last 4 Metars F.Rules Stats Wind Profile Meteogram Temp Stats Airport Information Weather charts Add Link Nearby VenuesMetar ALERT Operation Metar Decoded Social comments

AIRNAV info for KFLD